.
WxDataArchive / Data Records for 2007-11-09
2007-11-08 November 2007 2007-11-10

Data Records for Friday, 09 November 2007

Time	Temp	Chill	HIndex	Humid	Dewpt	 Wind 	HiWind	WindDir	Rain 	Barom 
-----	----	-----	------	-----	-----	------	------	-------	-----	----- 
00:00	42.2	42.2	42.2	65	31.3	0	2	248	0.00	29.853 
00:05	42.3	42.3	42.3	65	31.4	1	3	248	0.00	29.850 
00:10	42.6	42.6	42.6	64	31.3	1	3	248	0.00	29.848 
00:15	42.8	42.8	42.8	64	31.5	0	3	248	0.00	29.847 
00:20	42.8	42.8	42.8	64	31.5	1	3	248	0.00	29.847 
00:25	42.9	42.9	42.9	64	31.6	1	2	248	0.00	29.846 
00:30	42.9	42.9	42.9	64	31.6	1	3	248	0.00	29.845 
00:35	42.9	42.9	42.9	64	31.6	1	3	248	0.00	29.844 
00:40	42.9	42.9	42.9	64	31.6	1	3	248	0.00	29.845 
00:45	42.9	42.9	42.9	64	31.6	0	2	248	0.00	29.845 
00:50	42.9	42.9	42.9	64	31.6	1	5	248	0.00	29.843 
00:55	43.1	43.1	43.1	64	31.8	1	4	270	0.00	29.841 
01:00	43.1	43.1	43.1	64	31.8	1	2	270	0.00	29.838 
01:05	43.1	43.1	43.1	64	31.8	1	2	248	0.00	29.837 
01:10	43.1	43.1	43.1	64	31.8	1	2	248	0.00	29.837 
01:15	43.1	43.1	43.1	64	31.8	1	3	248	0.00	29.837 
01:20	42.9	42.9	42.9	65	32.0	1	3	248	0.00	29.837 
01:25	42.9	42.9	42.9	65	32.0	1	3	248	0.00	29.834 
01:30	42.8	42.8	42.8	65	31.9	0	2	248	0.00	29.834 
01:35	42.5	42.5	42.5	66	32.0	0	5	248	0.00	29.832 
01:40	42.3	42.3	42.3	66	31.8	0	3	248	0.00	29.835 
01:45	42.2	42.2	42.2	66	31.7	1	3	248	0.00	29.839 
01:50	42.1	42.1	42.1	67	31.9	0	1	248	0.00	29.836 
01:55	41.9	41.9	41.9	67	31.8	0	1	248	0.00	29.836 
02:00	41.9	41.9	41.9	68	32.1	0	2	248	0.00	29.841 
02:05	41.8	41.8	41.8	68	32.0	0	1	248	0.00	29.838 
02:10	41.5	41.5	41.5	68	31.7	0	1	248	0.00	29.836 
02:15	41.3	41.3	41.3	69	31.9	0	1	248	0.00	29.835 
02:20	41.2	41.2	41.2	69	31.8	0	1	248	0.00	29.835 
02:25	41.1	41.1	41.1	69	31.7	0	1	248	0.00	29.834 
02:30	40.8	40.8	40.8	70	31.8	0	1	248	0.00	29.837 
02:35	40.5	40.5	40.5	71	31.8	0	2	248	0.00	29.840 
02:40	40.3	40.3	40.3	71	31.7	0	1	248	0.00	29.842 
02:45	40.2	40.2	40.2	72	31.9	0	1	248	0.00	29.845 
02:50	40.1	40.1	40.1	72	31.8	0	1	248	0.00	29.844 
02:55	39.9	39.9	39.9	73	32.0	0	1	248	0.00	29.841 
03:00	39.9	39.9	39.9	73	32.0	0	2	248	0.00	29.842 
03:05	39.9	39.9	39.9	73	32.0	0	1	248	0.00	29.845 
03:10	40.1	40.1	40.1	73	32.2	0	2	248	0.00	29.844 
03:15	40.2	40.2	40.2	73	32.2	0	3	248	0.00	29.843 
03:20	40.3	40.3	40.3	73	32.3	1	3	248	0.00	29.843 
03:25	40.5	40.5	40.5	72	32.2	1	4	248	0.00	29.840 
03:30	40.3	40.3	40.3	72	32.0	1	4	248	0.00	29.844 
03:35	40.3	40.3	40.3	72	32.0	1	4	248	0.00	29.842 
03:40	40.2	40.2	40.2	72	31.9	1	3	248	0.00	29.843 
03:45	40.1	40.1	40.1	72	31.8	1	6	248	0.00	29.841 
03:50	39.9	39.9	39.9	73	32.0	1	4	248	0.00	29.844 
03:55	39.6	39.6	39.6	73	31.7	0	2	248	0.00	29.843 
04:00	39.5	39.5	39.5	73	31.6	0	2	248	0.00	29.842 
04:05	39.2	39.2	39.2	74	31.6	0	1	248	0.00	29.844 
04:10	39.1	39.1	39.1	74	31.5	0	1	248	0.00	29.842 
04:15	38.8	38.8	38.8	75	31.6	0	1	248	0.00	29.841 
04:20	38.5	38.5	38.5	75	31.3	0	1	248	0.00	29.847 
04:25	38.3	38.3	38.3	76	31.4	0	3	248	0.00	29.846 
04:30	38.2	38.2	38.2	77	31.6	0	1	248	0.00	29.848 
04:35	38.2	38.2	38.2	77	31.6	0	1	248	0.00	29.848 
04:40	38.0	38.0	38.0	77	31.4	0	0	---	0.00	29.850 
04:45	37.9	37.9	37.9	77	31.3	0	1	248	0.00	29.852 
04:50	37.8	37.8	37.8	77	31.2	0	1	248	0.00	29.852 
04:55	37.8	37.8	37.8	78	31.6	0	1	248	0.00	29.852 
05:00	37.9	37.9	37.9	78	31.7	0	2	248	0.00	29.853 
05:05	38.0	38.0	38.0	78	31.8	0	2	248	0.00	29.855 
05:10	38.0	38.0	38.0	78	31.8	0	2	248	0.00	29.854 
05:15	38.0	38.0	38.0	77	31.4	0	1	248	0.00	29.855 
05:20	37.9	37.9	37.9	77	31.3	0	1	248	0.00	29.856 
05:25	37.9	37.9	37.9	78	31.7	0	1	248	0.00	29.857 
05:30	37.9	37.9	37.9	78	31.7	0	2	248	0.00	29.858 
05:35	37.9	37.9	37.9	78	31.7	0	1	248	0.00	29.859 
05:40	37.9	37.9	37.9	78	31.7	0	1	248	0.00	29.858 
05:45	37.8	37.8	37.8	78	31.6	0	1	248	0.00	29.859 
05:50	37.6	37.6	37.6	78	31.4	0	1	248	0.00	29.862 
05:55	37.5	37.5	37.5	79	31.6	0	1	248	0.00	29.861 
06:00	37.5	37.5	37.5	79	31.6	0	1	248	0.00	29.862 
06:05	37.3	37.3	37.3	79	31.4	0	1	248	0.00	29.867 
06:10	37.2	37.2	37.2	79	31.3	0	1	248	0.00	29.866 
06:15	36.9	36.9	36.9	80	31.3	0	1	248	0.00	29.865 
06:20	36.9	36.9	36.9	80	31.3	0	1	248	0.00	29.866 
06:25	36.9	36.9	36.9	80	31.3	0	1	248	0.00	29.868 
06:30	36.9	36.9	36.9	80	31.3	0	1	248	0.00	29.867 
06:35	36.8	36.8	36.8	80	31.2	0	1	248	0.00	29.866 
06:40	36.6	36.6	36.6	81	31.3	0	1	248	0.00	29.864 
06:45	36.5	36.5	36.5	81	31.2	0	1	248	0.00	29.863 
06:50	36.3	36.3	36.3	81	31.0	0	1	248	0.00	29.865 
06:55	36.2	36.2	36.2	81	30.9	0	1	248	0.00	29.865 
07:00	36.2	36.2	36.2	82	31.2	0	1	248	0.00	29.863 
07:05	36.2	36.2	36.2	82	31.2	0	1	248	0.00	29.865 
07:10	36.0	36.0	36.0	82	31.0	0	0	---	0.00	29.865 
07:15	36.0	36.0	36.0	82	31.0	0	1	248	0.00	29.869 
07:20	35.8	35.8	35.8	82	30.9	0	1	248	0.00	29.870 
07:25	35.6	35.6	35.6	83	31.0	0	1	248	0.00	29.871 
07:30	35.5	35.5	35.5	83	30.9	0	1	248	0.00	29.872 
07:35	35.5	35.5	35.5	84	31.2	0	1	248	0.00	29.873 
07:40	35.5	35.5	35.5	84	31.2	0	1	248	0.00	29.874 
07:45	35.3	35.3	35.3	84	31.0	0	1	248	0.00	29.875 
07:50	35.3	35.3	35.3	84	31.0	0	1	248	0.00	29.879 
07:55	35.3	35.3	35.3	85	31.2	0	1	248	0.00	29.882 
08:00	35.6	35.6	35.6	85	31.5	0	1	248	0.00	29.886 
08:05	35.9	35.9	35.9	85	31.8	0	1	248	0.00	29.888 
08:10	36.2	36.2	36.2	85	32.1	0	1	248	0.00	29.888 
08:15	36.5	36.5	36.5	84	32.1	0	1	248	0.00	29.888 
08:20	36.8	36.8	36.8	84	32.4	0	1	248	0.00	29.889 
08:25	37.0	37.0	37.0	84	32.6	0	1	248	0.00	29.889 
08:30	37.3	37.3	37.3	83	32.6	0	1	248	0.00	29.889 
08:35	37.8	37.8	37.8	83	33.1	0	2	248	0.00	29.888 
08:40	38.0	38.0	38.0	82	33.0	0	1	248	0.00	29.888 
08:45	38.5	38.5	38.5	81	33.2	0	1	248	0.00	29.889 
08:50	38.9	38.9	38.9	81	33.6	0	1	248	0.00	29.889 
08:55	39.3	39.3	39.3	80	33.7	0	1	292	0.00	29.890 
09:00	39.8	39.8	39.8	79	33.8	0	2	292	0.00	29.889 
09:05	40.2	40.2	40.2	78	33.9	1	2	292	0.00	29.893 
09:10	40.8	40.8	40.8	77	34.2	0	2	292	0.00	29.891 
09:15	41.5	41.5	41.5	76	34.5	1	3	270	0.00	29.890 
09:20	42.1	42.1	42.1	74	34.4	1	3	248	0.00	29.889 
09:25	42.6	42.6	42.6	73	34.6	0	2	270	0.00	29.885 
09:30	42.9	42.9	42.9	72	34.5	1	3	270	0.00	29.885 
09:35	43.3	43.3	43.3	72	34.9	0	2	315	0.00	29.885 
09:40	43.8	43.8	43.8	71	35.0	1	4	315	0.00	29.884 
09:45	43.9	43.9	43.9	70	34.8	1	5	338	0.00	29.883 
09:50	44.3	44.3	44.3	70	35.1	0	2	292	0.00	29.883 
09:55	44.6	44.6	44.6	68	34.7	1	4	292	0.00	29.882 
10:00	44.8	44.8	44.8	68	34.9	1	5	315	0.00	29.882 
10:05	45.1	45.1	45.1	68	35.2	1	5	270	0.00	29.883 
10:10	45.2	45.2	45.2	67	34.9	1	4	270	0.00	29.884 
10:15	45.5	45.5	45.5	67	35.2	2	5	315	0.00	29.884 
10:20	45.7	45.7	45.7	67	35.4	1	5	248	0.00	29.884 
10:25	46.0	46.0	46.0	67	35.7	2	7	270	0.00	29.884 
10:30	46.2	46.2	46.2	67	35.9	2	6	270	0.00	29.884 
10:35	46.5	46.5	46.5	66	35.8	1	5	315	0.00	29.885 
10:40	46.7	46.7	46.7	65	35.6	1	3	315	0.00	29.885 
10:45	46.8	46.8	46.8	65	35.7	2	5	338	0.00	29.885 
10:50	47.4	47.4	47.4	63	35.4	2	5	315	0.00	29.885 
10:55	47.4	47.4	47.4	62	35.0	2	4	315	0.00	29.885 
11:00	47.6	47.6	47.6	62	35.2	2	5	248	0.00	29.887 
11:05	47.3	47.3	47.3	63	35.4	2	4	315	0.00	29.886 
11:10	47.7	47.7	47.7	63	35.7	2	4	270	0.00	29.885 
11:15	47.9	47.9	47.9	62	35.5	2	5	292	0.00	29.887 
11:20	47.6	47.6	47.6	63	35.6	2	4	292	0.00	29.887 
11:25	47.6	47.6	47.6	64	36.0	2	5	270	0.00	29.889 
11:30	47.4	47.4	47.4	65	36.2	2	6	270	0.00	29.891 
11:35	47.4	47.4	47.4	65	36.2	2	4	270	0.00	29.891 
11:40	48.2	48.2	48.2	67	37.8	1	3	292	0.00	29.885 
11:45	48.3	48.3	48.3	64	36.7	2	5	315	0.00	29.884 
11:50	47.7	47.7	47.7	65	36.5	2	7	270	0.00	29.884 
11:55	47.7	47.7	47.7	64	36.1	2	5	270	0.00	29.881 
12:00	47.7	47.7	47.7	65	36.5	2	5	338	0.00	29.881 
12:05	47.4	47.4	47.4	64	35.8	2	3	315	0.00	29.880 
12:10	47.7	47.7	47.7	65	36.5	2	6	248	0.00	29.879 
12:15	48.2	48.2	48.2	62	35.8	2	5	315	0.00	29.877 
12:20	48.5	48.5	48.5	63	36.5	2	4	315	0.00	29.871 
12:25	48.3	48.3	48.3	63	36.3	2	4	270	0.00	29.874 
12:30	48.5	48.5	48.5	63	36.5	2	4	270	0.00	29.868 
12:35	48.6	48.6	48.6	62	36.2	2	4	315	0.00	29.868 
12:40	49.2	49.2	49.2	63	37.1	2	6	270	0.00	29.869 
12:45	49.5	49.5	49.5	62	37.0	2	4	315	0.00	29.864 
12:50	49.4	49.4	49.4	61	36.5	3	6	270	0.00	29.863 
12:55	49.2	49.2	49.2	66	38.3	2	5	248	0.00	29.862 
13:00	49.2	49.2	49.2	60	35.9	2	7	292	0.00	29.861 
13:05	49.1	49.1	49.1	58	35.0	2	8	338	0.00	29.863 
13:10	48.8	48.8	48.8	58	34.7	2	9	270	0.00	29.861 
13:15	48.6	48.6	48.6	58	34.5	1	4	315	0.00	29.858 
13:20	48.6	48.6	48.6	58	34.5	1	6	315	0.00	29.859 
13:25	48.6	48.6	48.6	58	34.5	2	4	315	0.00	29.859 
13:30	48.6	48.6	48.6	58	34.5	2	4	270	0.00	29.859 
13:35	48.6	48.6	48.6	58	34.5	2	6	315	0.00	29.858 
13:40	48.5	48.5	48.5	58	34.4	2	5	315	0.00	29.859 
13:45	48.3	48.3	48.3	57	33.8	2	5	315	0.00	29.861 
13:50	48.0	48.0	48.0	58	33.9	2	6	315	0.00	29.862 
13:55	47.7	47.7	47.7	60	34.5	2	5	315	0.00	29.862 
14:00	47.7	47.7	47.7	59	34.1	1	4	338	0.00	29.862 
14:05	47.6	47.6	47.6	58	33.6	1	2	315	0.00	29.864 
14:10	47.6	47.6	47.6	59	34.0	1	3	315	0.00	29.864 
14:15	47.6	47.6	47.6	59	34.0	2	5	315	0.00	29.865 
14:20	47.4	47.4	47.4	61	34.6	2	6	315	0.00	29.867 
14:25	47.4	47.4	47.4	61	34.6	1	4	315	0.00	29.866 
14:30	47.6	47.6	47.6	62	35.2	1	3	315	0.00	29.865 
14:35	47.6	47.6	47.6	62	35.2	2	5	292	0.00	29.866 
14:40	47.3	47.3	47.3	62	34.9	2	4	315	0.00	29.868 
14:45	47.3	47.3	47.3	63	35.4	2	4	315	0.00	29.867 
14:50	47.0	47.0	47.0	63	35.1	2	6	315	0.00	29.867 
14:55	46.8	46.8	46.8	62	34.5	2	6	270	0.00	29.868 
15:00	46.5	46.5	46.5	60	33.4	2	6	315	0.00	29.868 
15:05	46.4	46.4	46.4	59	32.9	2	4	315	0.00	29.870 
15:10	46.2	46.2	46.2	61	33.5	2	5	315	0.00	29.870 
15:15	46.1	46.1	46.1	62	33.8	2	4	315	0.00	29.870 
15:20	46.0	46.0	46.0	63	34.1	2	5	248	0.00	29.871 
15:25	46.0	46.0	46.0	64	34.5	2	4	270	0.00	29.873 
15:30	45.8	45.8	45.8	64	34.3	2	7	270	0.00	29.876 
15:35	45.8	45.8	45.8	64	34.3	2	4	338	0.00	29.880 
15:40	45.8	45.8	45.8	65	34.7	2	5	270	0.00	29.882 
15:45	45.8	45.8	45.8	64	34.3	1	4	315	0.00	29.884 
15:50	45.8	45.8	45.8	65	34.7	2	5	338	0.00	29.886 
15:55	45.7	45.7	45.7	66	35.0	1	4	270	0.00	29.892 
16:00	45.7	45.7	45.7	66	35.0	2	4	315	0.00	29.895 
16:05	45.7	45.7	45.7	67	35.4	1	3	270	0.00	29.898 
16:10	45.8	45.8	45.8	66	35.1	2	4	315	0.00	29.899 
16:15	45.8	45.8	45.8	66	35.1	1	3	292	0.00	29.900 
16:20	45.8	45.8	45.8	66	35.1	1	3	338	0.00	29.902 
16:25	45.7	45.7	45.7	66	35.0	2	6	338	0.00	29.903 
16:30	45.5	45.5	45.5	67	35.2	3	6	315	0.00	29.909 
16:35	45.4	45.4	45.4	67	35.1	3	6	315	0.00	29.916 
16:40	44.8	44.8	44.8	69	35.3	3	8	315	0.00	29.916 
16:45	44.1	42.1	44.1	72	35.7	4	11	292	0.00	29.918 
16:50	43.5	43.5	43.5	74	35.8	3	7	315	0.00	29.920 
16:55	43.2	43.2	43.2	76	36.2	2	7	315	0.00	29.926 
17:00	43.1	43.1	43.1	77	36.4	2	6	315	0.00	29.930 
17:05	42.8	42.8	42.8	78	36.4	2	5	338	0.00	29.931 
17:10	42.6	42.6	42.6	78	36.2	2	6	315	0.00	29.934 
17:15	42.6	42.6	42.6	78	36.2	2	6	270	0.00	29.935 
17:20	42.5	42.5	42.5	77	35.8	2	6	315	0.00	29.935 
17:25	42.5	42.5	42.5	77	35.8	2	5	315	0.00	29.936 
17:30	42.5	42.5	42.5	76	35.5	2	6	315	0.00	29.938 
17:35	42.5	42.5	42.5	76	35.5	3	10	315	0.00	29.943 
17:40	42.6	42.6	42.6	76	35.6	2	5	315	0.00	29.948 
17:45	42.6	42.6	42.6	76	35.6	2	3	338	0.00	29.949 
17:50	42.6	42.6	42.6	76	35.6	1	4	338	0.00	29.951 
17:55	42.6	42.6	42.6	76	35.6	2	4	315	0.00	29.952 
18:00	42.6	42.6	42.6	76	35.6	2	4	315	0.00	29.954 
18:05	42.6	42.6	42.6	77	35.9	2	6	315	0.00	29.958 
18:10	42.5	42.5	42.5	77	35.8	1	4	338	0.00	29.963 
18:15	42.3	42.3	42.3	77	35.6	2	4	315	0.00	29.966 
18:20	42.3	42.3	42.3	76	35.3	2	5	292	0.00	29.967 
18:25	42.3	42.3	42.3	75	35.0	2	6	315	0.00	29.969 
18:30	42.3	42.3	42.3	75	35.0	1	3	315	0.00	29.969 
18:35	42.3	42.3	42.3	75	35.0	1	4	0	0.00	29.969 
18:40	42.3	42.3	42.3	74	34.6	2	4	315	0.00	29.973 
18:45	42.3	42.3	42.3	74	34.6	2	4	315	0.00	29.973 
18:50	42.3	42.3	42.3	73	34.3	1	2	315	0.00	29.974 
18:55	42.2	42.2	42.2	73	34.2	1	4	338	0.00	29.976 
19:00	42.2	42.2	42.2	72	33.8	1	3	338	0.00	29.977 
19:05	42.2	42.2	42.2	70	33.1	1	4	315	0.00	29.979 
19:10	42.1	42.1	42.1	69	32.7	2	6	315	0.00	29.981 
19:15	42.1	42.1	42.1	69	32.7	2	5	315	0.00	29.983 
19:20	41.9	41.9	41.9	68	32.1	2	6	292	0.00	29.983 
19:25	41.6	41.6	41.6	68	31.8	1	4	292	0.00	29.984 
19:30	41.5	41.5	41.5	67	31.4	2	3	338	0.00	29.984 
19:35	41.3	41.3	41.3	67	31.2	1	3	338	0.00	29.985 
19:40	41.2	41.2	41.2	67	31.1	1	3	315	0.00	29.987 
19:45	41.1	41.1	41.1	67	31.0	1	4	315	0.00	29.987 
19:50	40.9	40.9	40.9	67	30.8	1	2	315	0.00	29.991 
19:55	40.8	40.8	40.8	68	31.1	1	5	315	0.00	29.993 
20:00	40.6	40.6	40.6	68	30.9	1	4	338	0.00	29.995 
20:05	40.6	40.6	40.6	68	30.9	1	4	292	0.00	29.992 
20:10	40.5	40.5	40.5	68	30.8	1	4	315	0.00	29.994 
20:15	40.5	40.5	40.5	68	30.8	2	4	315	0.00	29.996 
20:20	40.5	40.5	40.5	67	30.4	2	4	315	0.00	29.995 
20:25	40.5	40.5	40.5	67	30.4	2	4	315	0.00	29.995 
20:30	40.5	40.5	40.5	66	30.0	1	4	338	0.00	29.997 
20:35	40.5	40.5	40.5	66	30.0	2	4	315	0.00	29.998 
20:40	40.5	40.5	40.5	66	30.0	1	4	315	0.00	29.998 
20:45	40.1	40.1	40.1	66	29.7	0	2	315	0.00	29.998 
20:50	39.9	39.9	39.9	66	29.5	1	4	315	0.00	29.999 
20:55	39.9	39.9	39.9	66	29.5	1	3	315	0.00	30.000 
21:00	39.6	39.6	39.6	67	29.6	1	2	338	0.00	30.002 
21:05	39.6	39.6	39.6	66	29.2	1	3	315	0.00	30.001 
21:10	39.5	39.5	39.5	67	29.5	0	1	315	0.00	30.005 
21:15	39.3	39.3	39.3	67	29.3	1	2	315	0.00	30.003 
21:20	39.3	39.3	39.3	67	29.3	0	1	292	0.00	30.002 
21:25	39.2	39.2	39.2	67	29.2	0	2	338	0.00	30.005 
21:30	39.1	39.1	39.1	67	29.1	0	1	338	0.00	30.004 
21:35	39.1	39.1	39.1	67	29.1	1	4	315	0.00	30.005 
21:40	38.9	38.9	38.9	67	28.9	0	1	315	0.00	30.008 
21:45	38.9	38.9	38.9	67	28.9	0	2	315	0.00	30.008 
21:50	38.8	38.8	38.8	67	28.8	0	2	315	0.00	30.010 
21:55	38.6	38.6	38.6	67	28.6	0	3	338	0.00	30.009 
22:00	38.6	38.6	38.6	67	28.6	0	2	338	0.00	30.011 
22:05	38.5	38.5	38.5	67	28.5	0	1	338	0.00	30.009 
22:10	38.3	38.3	38.3	67	28.3	0	1	338	0.00	30.009 
22:15	38.3	38.3	38.3	67	28.3	0	1	338	0.00	30.010 
22:20	38.3	38.3	38.3	68	28.7	0	2	338	0.00	30.010 
22:25	38.2	38.2	38.2	68	28.6	0	1	338	0.00	30.010 
22:30	38.0	38.0	38.0	68	28.4	0	1	338	0.00	30.011 
22:35	37.9	37.9	37.9	69	28.7	0	1	338	0.00	30.010 
22:40	37.9	37.9	37.9	69	28.7	0	1	338	0.00	30.011 
22:45	37.8	37.8	37.8	69	28.6	0	1	315	0.00	30.011 
22:50	37.8	37.8	37.8	70	28.9	0	1	315	0.00	30.012 
22:55	37.6	37.6	37.6	70	28.7	0	1	315	0.00	30.014 
23:00	37.6	37.6	37.6	70	28.7	0	2	270	0.00	30.014 
23:05	37.6	37.6	37.6	70	28.7	0	2	270	0.00	30.016 
23:10	37.6	37.6	37.6	70	28.7	0	2	270	0.00	30.019 
23:15	37.5	37.5	37.5	71	29.0	0	3	270	0.00	30.018 
23:20	37.3	37.3	37.3	71	28.8	0	2	292	0.00	30.018 
23:25	37.3	37.3	37.3	71	28.8	0	2	292	0.00	30.019 
23:30	37.3	37.3	37.3	71	28.8	0	1	292	0.00	30.020 
23:35	37.3	37.3	37.3	71	28.8	0	1	292	0.00	30.020 
23:40	37.3	37.3	37.3	72	29.1	0	3	292	0.00	30.022 
23:45	37.2	37.2	37.2	72	29.0	0	1	292	0.00	30.022 
23:50	37.0	37.0	37.0	73	29.2	0	1	292	0.00	30.024 
23:55	36.9	36.9	36.9	73	29.1	0	1	292	0.00	30.026 

CoCoRaHS
IN-AL-39
A2 Web Hosting
Creative Commons License
GoDaddy
Look for:

loaded 2017-12-13 19:57:20 • last modified 2010-11-18 10:43:29
Privacy PolicyDisclaimer
• wx.awcolley.com is powered by PmWiki v.2002016 •
• all content (unless otherwise noted) © 2017 A W Colley